createdAt,value
2018-02-19T00:00:53.773Z,68.30
2018-02-19T00:03:20.722Z,68.80
2018-02-19T00:05:48.303Z,68.10
2018-02-19T00:08:14.506Z,68.40
2018-02-19T00:10:40.660Z,68.70
2018-02-19T00:13:06.860Z,75.60
2018-02-19T00:15:33.441Z,67.70
2018-02-19T00:17:59.622Z,81.30
2018-02-19T00:20:25.820Z,68.30
2018-02-19T00:22:52.014Z,74.60
2018-02-19T00:25:18.226Z,77.20
2018-02-19T00:27:45.515Z,67.60
2018-02-19T00:30:11.714Z,76.40
2018-02-19T00:32:38.691Z,68.30
2018-02-19T00:35:05.581Z,68.30
2018-02-19T00:37:31.816Z,75.30
2018-02-19T00:39:58.770Z,67.60
2018-02-19T00:42:25.344Z,67.70
2018-02-19T00:44:51.522Z,68.60
2018-02-19T00:47:17.710Z,67.60
2018-02-19T00:49:43.888Z,75.70
2018-02-19T00:52:10.076Z,67.70
2018-02-19T00:54:36.582Z,67.60
2018-02-19T00:57:03.528Z,67.60
2018-02-19T00:59:29.861Z,67.60
2018-02-19T01:01:56.389Z,67.10
2018-02-19T01:06:50.548Z,70.90
2018-02-19T01:09:17.167Z,66.50
2018-02-19T01:11:43.709Z,66.80
2018-02-19T01:14:09.890Z,68.90
2018-02-19T01:16:36.194Z,75.70
2018-02-19T01:19:03.192Z,66.80
2018-02-19T01:21:29.389Z,76.60
2018-02-19T01:23:55.614Z,69.10
2018-02-19T01:26:21.845Z,68.20
2018-02-19T01:28:48.423Z,66.50
2018-02-19T01:31:15.011Z,66.70
2018-02-19T01:33:41.194Z,66.80
2018-02-19T01:36:07.983Z,66.90
2018-02-19T01:38:34.995Z,67.30
2018-02-19T01:41:01.201Z,67.40
2018-02-19T01:43:27.385Z,67.50
2018-02-19T01:45:53.974Z,67.20
2018-02-19T01:48:20.181Z,67.40
2018-02-19T01:50:46.375Z,67.60
2018-02-19T01:53:13.284Z,67.30
2018-02-19T01:55:39.921Z,66.30
2018-02-19T01:58:06.505Z,66.70
2018-02-19T02:00:33.491Z,67.10
2018-02-19T02:02:59.690Z,66.80
2018-02-19T02:05:26.268Z,66.40
2018-02-19T02:07:52.472Z,70.40
2018-02-19T02:10:18.654Z,68.20
2018-02-19T02:12:45.577Z,67.00
2018-02-19T02:15:12.146Z,66.60
2018-02-19T02:17:39.152Z,67.30
2018-02-19T02:20:05.360Z,66.80
2018-02-19T02:22:32.678Z,67.40
2018-02-19T02:24:59.271Z,67.10
2018-02-19T02:27:25.467Z,67.00
2018-02-19T02:29:51.613Z,69.00
2018-02-19T02:32:17.876Z,67.80
2018-02-19T02:34:44.113Z,67.80
2018-02-19T02:37:10.291Z,66.90
2018-02-19T02:39:37.231Z,66.30
2018-02-19T02:42:03.433Z,67.40
2018-02-19T02:44:30.407Z,66.70
2018-02-19T02:46:56.580Z,66.40
2018-02-19T02:49:22.765Z,67.70
2018-02-19T02:51:48.941Z,67.00
2018-02-19T02:54:15.159Z,68.30
2018-02-19T02:56:41.334Z,66.60
2018-02-19T02:59:08.296Z,65.70
2018-02-19T03:01:34.473Z,68.10
2018-02-19T03:04:00.660Z,69.10
2018-02-19T03:06:26.886Z,65.80
2018-02-19T03:08:53.491Z,65.90
2018-02-19T03:11:20.419Z,66.90
2018-02-19T03:13:46.583Z,69.80
2018-02-19T03:16:12.820Z,67.60
2018-02-19T03:18:38.977Z,67.70
2018-02-19T03:21:05.151Z,68.30
2018-02-19T03:23:32.077Z,68.10
2018-02-19T03:25:58.276Z,67.50
2018-02-19T03:28:24.483Z,69.50
2018-02-19T03:30:50.691Z,69.30
2018-02-19T03:33:16.910Z,69.20
2018-02-19T03:35:43.836Z,66.50
2018-02-19T03:38:10.021Z,68.40
2018-02-19T03:40:36.254Z,66.80
2018-02-19T03:43:02.438Z,66.00
2018-02-19T03:45:29.395Z,66.10
2018-02-19T03:47:55.618Z,65.50
2018-02-19T03:50:22.573Z,65.10
2018-02-19T03:52:48.749Z,65.20
2018-02-19T03:55:15.687Z,65.60
2018-02-19T03:57:42.234Z,65.60
2018-02-19T04:00:09.159Z,65.60
2018-02-19T04:02:35.352Z,66.60
2018-02-19T04:05:01.931Z,65.40
2018-02-19T04:07:28.136Z,66.80
2018-02-19T04:09:54.705Z,65.30
2018-02-19T04:12:21.293Z,65.10
2018-02-19T04:14:47.444Z,65.50
2018-02-19T04:17:13.994Z,65.20
2018-02-19T04:19:40.519Z,65.90
2018-02-19T04:22:06.715Z,66.40
2018-02-19T04:24:33.286Z,65.50
2018-02-19T04:26:59.494Z,65.20
2018-02-19T04:29:26.071Z,66.10
2018-02-19T04:31:52.609Z,66.10
2018-02-19T04:34:18.783Z,66.10
2018-02-19T04:36:45.730Z,66.50
2018-02-19T04:39:12.736Z,66.60
2018-02-19T04:41:39.310Z,66.00
2018-02-19T04:44:06.353Z,67.30
2018-02-19T04:46:35.170Z,68.00
2018-02-19T04:49:01.347Z,67.30
2018-02-19T04:51:27.518Z,70.30
2018-02-19T04:53:54.819Z,67.20
2018-02-19T04:56:21.077Z,68.30
2018-02-19T04:58:47.226Z,71.60
2018-02-19T05:01:13.409Z,73.00
2018-02-19T05:03:39.645Z,72.20
2018-02-19T05:06:05.824Z,70.50
2018-02-19T05:08:32.127Z,71.00
2018-02-19T05:10:59.102Z,68.00
2018-02-19T05:13:25.310Z,74.00
2018-02-19T05:15:52.254Z,68.00
2018-02-19T05:18:19.201Z,67.80
2018-02-19T05:20:46.486Z,67.30
2018-02-19T05:23:13.037Z,67.40
2018-02-19T05:28:07.520Z,67.30
2018-02-19T05:30:33.712Z,72.70
2018-02-19T05:33:00.685Z,67.30
2018-02-19T05:35:26.981Z,68.90
2018-02-19T05:37:53.211Z,69.00
2018-02-19T05:40:19.523Z,73.10
2018-02-19T05:42:45.741Z,74.60
2018-02-19T05:45:11.978Z,69.90
2018-02-19T05:47:38.164Z,68.60
2018-02-19T05:50:04.391Z,72.80
2018-02-19T05:52:30.626Z,68.30
2018-02-19T05:54:56.882Z,71.70
2018-02-19T05:57:23.069Z,68.30
2018-02-19T05:59:49.985Z,68.60
2018-02-19T06:02:16.211Z,75.40
2018-02-19T06:07:10.275Z,69.50
2018-02-19T06:09:37.240Z,67.90
2018-02-19T06:12:04.242Z,68.00
2018-02-19T06:14:30.467Z,77.50
2018-02-19T06:16:56.638Z,70.70
2018-02-19T06:19:23.561Z,67.90
2018-02-19T06:21:49.766Z,78.10
2018-02-19T06:24:16.775Z,68.50
2018-02-19T06:26:43.344Z,67.60
2018-02-19T06:29:10.062Z,67.50
2018-02-19T06:31:36.277Z,76.50
2018-02-19T06:34:02.503Z,69.10
2018-02-19T06:36:29.110Z,67.50
2018-02-19T06:38:55.344Z,76.80
2018-02-19T06:41:22.625Z,68.80
2018-02-19T06:43:48.813Z,70.80
2018-02-19T06:46:15.085Z,70.00
2018-02-19T06:48:41.290Z,69.60
2018-02-19T06:51:07.820Z,68.90
2018-02-19T06:53:33.973Z,77.10
2018-02-19T06:56:00.135Z,77.10
2018-02-19T06:58:27.098Z,68.70
2018-02-19T07:00:53.689Z,68.10
2018-02-19T07:03:21.354Z,69.00
2018-02-19T07:05:49.091Z,69.60
2018-02-19T07:08:15.280Z,73.90
2018-02-19T07:10:42.214Z,69.00
2018-02-19T07:13:09.160Z,68.70
2018-02-19T07:15:35.781Z,69.30
2018-02-19T07:18:02.033Z,68.70
2018-02-19T07:20:29.099Z,75.50
2018-02-19T07:22:55.304Z,76.10
2018-02-19T07:25:22.258Z,68.30
2018-02-19T07:28:04.092Z,68.20
2018-02-19T07:30:30.371Z,76.80
2018-02-19T07:32:56.551Z,72.20
2018-02-19T07:35:22.742Z,72.30
2018-02-19T07:37:49.322Z,67.60
2018-02-19T07:40:15.504Z,76.60
2018-02-19T07:42:42.506Z,67.90
2018-02-19T07:45:08.725Z,74.60
2018-02-19T07:47:35.219Z,67.60
2018-02-19T07:50:01.815Z,67.00
2018-02-19T07:52:28.005Z,76.50
2018-02-19T07:54:54.210Z,74.10
2018-02-19T07:57:20.779Z,65.70
2018-02-19T07:59:46.935Z,75.70
2018-02-19T08:02:13.126Z,66.70
2018-02-19T08:04:39.320Z,64.70
2018-02-19T08:07:06.261Z,64.60
2018-02-19T08:09:32.421Z,67.30
2018-02-19T08:11:58.639Z,69.30
2018-02-19T08:14:25.556Z,60.80
2018-02-19T08:16:52.246Z,59.30
2018-02-19T08:19:18.494Z,64.60
2018-02-19T08:21:44.700Z,59.00
2018-02-19T08:24:10.929Z,66.30
2018-02-19T08:26:37.118Z,59.70
2018-02-19T08:29:03.339Z,61.30
2018-02-19T08:31:29.524Z,61.60
2018-02-19T08:33:55.736Z,61.30
2018-02-19T08:36:22.712Z,61.20
2018-02-19T08:38:49.634Z,60.60
2018-02-19T08:41:15.818Z,59.60
2018-02-19T08:43:42.724Z,57.90
2018-02-19T08:46:09.283Z,57.70
2018-02-19T08:48:35.446Z,63.70
2018-02-19T08:51:02.404Z,58.30
2018-02-19T08:53:29.352Z,57.00
2018-02-19T08:55:56.456Z,57.90
2018-02-19T08:58:22.599Z,57.10
2018-02-19T09:00:48.790Z,56.30
2018-02-19T09:03:14.988Z,55.90
2018-02-19T09:05:41.190Z,62.80
2018-02-19T09:08:08.113Z,55.70
2018-02-19T09:10:34.323Z,61.40
2018-02-19T09:13:00.474Z,56.50
2018-02-19T09:15:26.638Z,58.20
2018-02-19T09:17:53.602Z,55.10
2018-02-19T09:20:19.791Z,64.10
2018-02-19T09:22:46.387Z,54.90
2018-02-19T09:25:12.543Z,55.40
2018-02-19T09:27:38.702Z,59.10
2018-02-19T09:30:05.644Z,56.80
2018-02-19T09:32:32.213Z,55.50
2018-02-19T09:34:58.428Z,60.20
2018-02-19T09:37:24.609Z,55.60
2018-02-19T09:39:50.820Z,56.70
2018-02-19T09:42:17.063Z,53.90
2018-02-19T09:44:43.223Z,53.60
2018-02-19T09:47:10.176Z,52.40
2018-02-19T09:49:37.103Z,51.90
2018-02-19T09:52:03.302Z,52.60
2018-02-19T09:54:29.478Z,51.10
2018-02-19T09:56:56.411Z,51.20
2018-02-19T09:59:23.359Z,50.70
2018-02-19T10:01:49.909Z,51.30
2018-02-19T10:04:16.824Z,51.90
2018-02-19T10:06:43.346Z,51.80
2018-02-19T10:09:09.552Z,52.20
2018-02-19T10:11:36.131Z,50.40
2018-02-19T10:14:02.297Z,50.70
2018-02-19T10:16:28.459Z,50.60
2018-02-19T10:18:54.654Z,51.30
2018-02-19T10:21:20.854Z,51.40
2018-02-19T10:23:47.774Z,50.90
2018-02-19T10:26:13.969Z,50.90
2018-02-19T10:28:40.158Z,51.20
2018-02-19T10:31:07.094Z,51.10
2018-02-19T10:33:33.272Z,50.80
2018-02-19T10:36:00.553Z,50.70
2018-02-19T10:38:27.131Z,51.10
2018-02-19T10:40:54.070Z,51.30
2018-02-19T10:43:20.972Z,51.30
2018-02-19T10:45:47.189Z,51.00
2018-02-19T10:48:13.333Z,51.30
2018-02-19T10:50:39.567Z,51.50
2018-02-19T10:53:05.745Z,51.10
2018-02-19T10:55:31.951Z,51.00
2018-02-19T10:57:58.887Z,51.40
2018-02-19T11:00:27.898Z,51.20
2018-02-19T11:02:54.809Z,51.20
2018-02-19T11:05:21.004Z,50.90
2018-02-19T11:07:47.194Z,50.10
2018-02-19T11:10:14.147Z,50.30
2018-02-19T11:12:40.667Z,49.60
2018-02-19T11:15:06.870Z,49.20
2018-02-19T11:17:33.075Z,49.90
2018-02-19T11:19:59.303Z,49.40
2018-02-19T11:22:25.497Z,48.70
2018-02-19T11:24:52.915Z,45.90
2018-02-19T11:27:19.482Z,44.20
2018-02-19T11:29:46.374Z,43.50
2018-02-19T11:32:12.585Z,42.70
2018-02-19T11:34:38.824Z,41.80
2018-02-19T11:37:04.961Z,41.80
2018-02-19T11:39:31.171Z,41.30
2018-02-19T11:41:57.399Z,41.80
2018-02-19T11:44:23.673Z,43.40
2018-02-19T11:46:49.862Z,45.30
2018-02-19T11:49:16.092Z,46.00
2018-02-19T11:51:42.272Z,47.20
2018-02-19T11:54:08.533Z,48.70
2018-02-19T11:56:34.728Z,58.40
2018-02-19T11:59:01.298Z,48.70
2018-02-19T12:01:27.514Z,49.40
2018-02-19T12:03:54.440Z,50.40
2018-02-19T12:06:21.034Z,50.40
2018-02-19T12:08:47.210Z,50.90
2018-02-19T12:11:13.423Z,51.30
2018-02-19T12:13:40.032Z,51.30
2018-02-19T12:16:06.250Z,51.70
2018-02-19T12:18:32.463Z,49.10
2018-02-19T12:20:58.722Z,46.40
2018-02-19T12:23:24.926Z,46.10
2018-02-19T12:25:51.207Z,49.40
2018-02-19T12:28:17.846Z,47.20
2018-02-19T12:30:44.025Z,49.20
2018-02-19T12:33:10.233Z,54.30
2018-02-19T12:35:37.171Z,48.90
2018-02-19T12:38:04.291Z,48.90
2018-02-19T12:40:30.531Z,46.90
2018-02-19T12:42:56.679Z,52.60
2018-02-19T12:45:23.608Z,42.80
2018-02-19T12:47:49.773Z,45.10
2018-02-19T12:50:15.954Z,49.00
2018-02-19T12:52:42.151Z,46.40
2018-02-19T12:55:08.413Z,46.90
2018-02-19T12:57:34.696Z,48.40
2018-02-19T13:00:00.921Z,47.90
2018-02-19T13:02:27.115Z,48.20
2018-02-19T13:04:53.317Z,48.10
2018-02-19T13:07:19.546Z,48.10
2018-02-19T13:09:45.784Z,49.20
2018-02-19T13:12:11.977Z,48.60
2018-02-19T13:14:38.286Z,49.80
2018-02-19T13:17:05.247Z,50.40
2018-02-19T13:19:31.465Z,50.40
2018-02-19T13:21:58.403Z,50.30
2018-02-19T13:24:25.356Z,49.40
2018-02-19T13:26:51.572Z,49.10
2018-02-19T13:29:18.541Z,49.90
2018-02-19T13:31:44.736Z,49.80
2018-02-19T13:34:10.909Z,50.40
2018-02-19T13:36:37.073Z,50.40
2018-02-19T13:39:03.381Z,51.30
2018-02-19T13:41:29.643Z,51.90
2018-02-19T13:43:57.375Z,56.80
2018-02-19T13:46:23.591Z,57.10
2018-02-19T13:48:49.767Z,53.00
2018-02-19T13:51:16.060Z,49.60
2018-02-19T13:53:42.274Z,51.90
2018-02-19T13:56:09.295Z,57.40
2018-02-19T13:58:36.341Z,51.90
2018-02-19T14:01:03.285Z,51.40
2018-02-19T14:03:30.196Z,51.40
2018-02-19T14:05:56.381Z,51.40
2018-02-19T14:08:22.662Z,52.00
2018-02-19T14:10:48.847Z,52.60
2018-02-19T14:13:15.079Z,52.70
2018-02-19T14:15:41.329Z,53.10
2018-02-19T14:18:07.616Z,53.80
2018-02-19T14:20:33.764Z,54.60
2018-02-19T14:23:00.146Z,55.00
2018-02-19T14:25:27.071Z,55.10
2018-02-19T14:27:53.226Z,54.80
2018-02-19T14:30:19.442Z,53.50
2018-02-19T14:32:46.398Z,53.80
2018-02-19T14:35:12.590Z,53.80
2018-02-19T14:37:38.815Z,54.50
2018-02-19T14:40:05.063Z,54.10
2018-02-19T14:42:31.316Z,53.00
2018-02-19T14:44:57.733Z,53.50
2018-02-19T14:47:23.923Z,53.50
2018-02-19T14:49:51.774Z,53.80
2018-02-19T14:52:17.989Z,57.90
2018-02-19T14:54:44.964Z,53.10
2018-02-19T14:57:11.180Z,53.50
2018-02-19T14:59:37.388Z,53.60
2018-02-19T15:02:04.405Z,54.10
2018-02-19T15:04:30.746Z,53.80
2018-02-19T15:06:57.336Z,53.50
2018-02-19T15:09:23.576Z,54.00
2018-02-19T15:11:49.783Z,53.90
2018-02-19T15:14:15.996Z,53.50
2018-02-19T15:16:44.036Z,54.50
2018-02-19T15:19:10.297Z,54.40
2018-02-19T15:21:38.263Z,53.20
2018-02-19T15:24:05.259Z,54.20
2018-02-19T15:26:31.465Z,53.80
2018-02-19T15:28:57.662Z,54.20
2018-02-19T15:31:24.636Z,54.40
2018-02-19T15:33:50.834Z,54.50
2018-02-19T15:36:17.778Z,55.10
2018-02-19T15:38:44.039Z,54.70
2018-02-19T15:41:10.202Z,54.30
2018-02-19T15:43:36.605Z,55.70
2018-02-19T15:46:02.857Z,56.20
2018-02-19T15:48:29.043Z,56.10
2018-02-19T15:50:57.792Z,57.90
2018-02-19T15:53:25.038Z,58.00
2018-02-19T15:55:51.233Z,57.80
2018-02-19T15:58:17.472Z,57.70
2018-02-19T16:00:43.714Z,58.40
2018-02-19T16:03:09.958Z,59.00
2018-02-19T16:05:36.135Z,59.00
2018-02-19T16:08:02.335Z,58.70
2018-02-19T16:10:28.538Z,58.70
2018-02-19T16:12:54.702Z,58.70
2018-02-19T16:15:21.769Z,61.60
2018-02-19T16:17:47.972Z,59.30
2018-02-19T16:20:14.241Z,58.40
2018-02-19T16:22:40.440Z,58.20
2018-02-19T16:25:07.416Z,59.00
2018-02-19T16:27:33.621Z,58.70
2018-02-19T16:30:01.790Z,58.60
2018-02-19T16:32:28.718Z,58.80
2018-02-19T16:34:57.051Z,58.60
2018-02-19T16:37:23.231Z,58.80
2018-02-19T16:39:49.454Z,59.40
2018-02-19T16:42:15.650Z,59.00
2018-02-19T16:44:41.862Z,59.30
2018-02-19T16:47:08.079Z,59.30
2018-02-19T16:49:34.292Z,59.00
2018-02-19T16:52:01.372Z,59.70
2018-02-19T16:54:27.873Z,59.20
2018-02-19T16:56:54.082Z,58.70
2018-02-19T16:59:20.322Z,59.50
2018-02-19T17:01:47.368Z,59.80
2018-02-19T17:04:15.211Z,59.90
2018-02-19T17:06:41.477Z,59.70
2018-02-19T17:09:08.516Z,60.50
2018-02-19T17:11:35.560Z,60.80
2018-02-19T17:14:02.489Z,61.30
2018-02-19T17:16:28.757Z,59.60
2018-02-19T17:18:54.966Z,59.70
2018-02-19T17:21:21.943Z,60.60
2018-02-19T17:23:48.148Z,60.10
2018-02-19T17:26:15.231Z,61.00
2018-02-19T17:28:41.475Z,60.60
2018-02-19T17:31:07.691Z,60.60
2018-02-19T17:33:33.963Z,60.50
2018-02-19T17:36:00.212Z,59.60
2018-02-19T17:38:27.211Z,59.80
2018-02-19T17:40:53.421Z,59.80
2018-02-19T17:43:19.713Z,59.80
2018-02-19T17:45:46.689Z,60.10
2018-02-19T17:48:12.866Z,59.80
2018-02-19T17:50:39.077Z,59.80
2018-02-19T17:53:05.286Z,60.50
2018-02-19T17:55:31.512Z,59.80
2018-02-19T17:57:57.761Z,59.80
2018-02-19T18:00:24.021Z,59.80
2018-02-19T18:02:50.212Z,60.30
2018-02-19T18:05:16.554Z,59.50
2018-02-19T18:07:42.786Z,60.10
2018-02-19T18:10:09.012Z,60.10
2018-02-19T18:12:35.246Z,59.50
2018-02-19T18:15:01.462Z,59.70
2018-02-19T18:17:27.678Z,60.10
2018-02-19T18:19:53.889Z,60.10
2018-02-19T18:22:20.095Z,59.70
2018-02-19T18:24:46.318Z,59.50
2018-02-19T18:27:12.583Z,59.40
2018-02-19T18:29:39.195Z,59.30
2018-02-19T18:32:05.482Z,59.60
2018-02-19T18:34:31.698Z,60.10
2018-02-19T18:36:57.929Z,60.00
2018-02-19T18:39:24.103Z,59.60
2018-02-19T18:41:50.331Z,60.10
2018-02-19T18:44:18.059Z,60.90
2018-02-19T18:46:44.366Z,60.20
2018-02-19T18:49:10.650Z,59.60
2018-02-19T18:51:36.942Z,59.40
2018-02-19T18:54:03.365Z,59.90
2018-02-19T18:56:29.603Z,59.90
2018-02-19T18:58:55.853Z,59.60
2018-02-19T19:01:22.054Z,59.00
2018-02-19T19:03:48.303Z,59.90
2018-02-19T19:06:14.570Z,60.30
2018-02-19T19:08:53.091Z,59.80
2018-02-19T19:11:19.316Z,60.50
2018-02-19T19:13:46.272Z,61.10
2018-02-19T19:16:13.244Z,60.40
2018-02-19T19:18:40.454Z,60.30
2018-02-19T19:21:06.710Z,60.30
2018-02-19T19:23:32.939Z,60.50
2018-02-19T19:25:59.394Z,60.80
2018-02-19T19:28:25.578Z,61.60
2018-02-19T19:30:51.847Z,62.40
2018-02-19T19:33:18.130Z,62.90
2018-02-19T19:35:44.375Z,63.10
2018-02-19T19:38:11.365Z,63.40
2018-02-19T19:40:37.618Z,63.10
2018-02-19T19:43:03.867Z,63.30
2018-02-19T19:45:30.113Z,63.60
2018-02-19T19:47:57.119Z,63.90
2018-02-19T19:50:23.390Z,63.30
2018-02-19T19:52:49.585Z,63.30
2018-02-19T19:55:15.785Z,63.70
2018-02-19T19:57:41.969Z,63.90
2018-02-19T20:00:08.350Z,64.30
2018-02-19T20:02:34.577Z,64.60
2018-02-19T20:05:00.821Z,65.00
2018-02-19T20:07:27.055Z,64.90
2018-02-19T20:09:53.332Z,64.90
2018-02-19T20:12:20.278Z,65.20
2018-02-19T20:14:46.954Z,64.60
2018-02-19T20:17:13.224Z,65.10
2018-02-19T20:19:39.882Z,64.10
2018-02-19T20:22:06.877Z,64.60
2018-02-19T20:24:33.085Z,64.00
2018-02-19T20:26:59.300Z,64.70
2018-02-19T20:29:25.668Z,64.40
2018-02-19T20:31:51.974Z,64.50
2018-02-19T20:34:18.548Z,64.50
2018-02-19T20:36:44.751Z,64.60
2018-02-19T20:39:10.968Z,64.90
2018-02-19T20:41:37.230Z,65.30
2018-02-19T20:44:03.488Z,65.50
2018-02-19T20:46:29.759Z,65.80
2018-02-19T20:48:56.076Z,65.80
2018-02-19T20:51:23.159Z,65.60
2018-02-19T20:53:49.768Z,65.60
2018-02-19T20:56:16.110Z,65.60
2018-02-19T20:58:42.360Z,65.80
2018-02-19T21:01:09.359Z,65.50
2018-02-19T21:03:36.427Z,66.50
2018-02-19T21:06:02.856Z,66.90
2018-02-19T21:08:29.491Z,66.90
2018-02-19T21:10:56.782Z,67.00
2018-02-19T21:13:23.003Z,66.20
2018-02-19T21:15:49.262Z,65.90
2018-02-19T21:18:15.471Z,65.90
2018-02-19T21:20:41.719Z,65.70
2018-02-19T21:23:08.050Z,65.50
2018-02-19T21:25:34.310Z,65.20
2018-02-19T21:28:05.721Z,65.70
2018-02-19T21:30:32.027Z,65.30
2018-02-19T21:32:58.217Z,64.90
2018-02-19T21:35:25.236Z,65.20
2018-02-19T21:37:51.455Z,64.20
2018-02-19T21:40:17.682Z,64.80
2018-02-19T21:42:43.982Z,64.00
2018-02-19T21:45:10.211Z,63.40
2018-02-19T21:47:36.620Z,63.20
2018-02-19T21:50:03.617Z,63.50
2018-02-19T21:52:29.900Z,63.40
2018-02-19T21:54:56.811Z,64.00
2018-02-19T21:57:23.124Z,63.70
2018-02-19T21:59:49.338Z,63.70
2018-02-19T22:02:16.291Z,64.00
2018-02-19T22:04:42.534Z,64.50
2018-02-19T22:07:08.814Z,64.80
2018-02-19T22:09:36.210Z,64.20
2018-02-19T22:12:02.398Z,64.10
2018-02-19T22:14:28.984Z,63.70
2018-02-19T22:16:56.203Z,63.80
2018-02-19T22:19:22.396Z,63.70
2018-02-19T22:21:48.601Z,64.10
2018-02-19T22:24:14.862Z,64.30
2018-02-19T22:26:41.067Z,63.80
2018-02-19T22:29:07.301Z,64.00
2018-02-19T22:31:33.556Z,65.00
2018-02-19T22:34:00.556Z,65.70
2018-02-19T22:36:26.766Z,65.20
2018-02-19T22:38:52.962Z,65.90
2018-02-19T22:41:19.916Z,66.60
2018-02-19T22:43:47.363Z,66.60
2018-02-19T22:46:14.311Z,67.30
2018-02-19T22:48:41.461Z,67.20
2018-02-19T22:51:08.406Z,67.20
2018-02-19T22:53:36.142Z,66.50
2018-02-19T22:56:02.352Z,66.50
2018-02-19T22:58:28.558Z,66.60
2018-02-19T23:00:54.810Z,66.50
2018-02-19T23:03:20.998Z,66.50
2018-02-19T23:05:48.048Z,67.20
2018-02-19T23:08:14.240Z,66.50
2018-02-19T23:10:40.591Z,67.30
2018-02-19T23:13:07.546Z,67.30
2018-02-19T23:15:34.914Z,66.70
2018-02-19T23:18:01.139Z,68.10
2018-02-19T23:20:28.073Z,67.20
2018-02-19T23:22:54.995Z,67.50
2018-02-19T23:25:21.300Z,67.90
2018-02-19T23:27:47.538Z,67.50
2018-02-19T23:30:13.718Z,67.50
2018-02-19T23:32:39.882Z,67.40
2018-02-19T23:35:06.115Z,68.00
2018-02-19T23:37:32.322Z,67.40
2018-02-19T23:39:58.514Z,67.30
2018-02-19T23:42:25.144Z,67.30
2018-02-19T23:44:51.403Z,67.20
2018-02-19T23:47:17.610Z,67.30
2018-02-19T23:49:44.577Z,68.50
2018-02-19T23:52:10.772Z,67.20
2018-02-19T23:54:37.358Z,67.20
2018-02-19T23:57:03.628Z,67.90
2018-02-19T23:59:29.842Z,89.20
